createdAt,value
2019-01-31T00:02:50.305Z,10.00
2019-01-31T00:05:48.488Z,4.80
2019-01-31T00:08:26.901Z,4.62
2019-01-31T00:11:03.578Z,5.22
2019-01-31T00:14:17.490Z,8.20
2019-01-31T00:17:35.718Z,5.35
2019-01-31T00:20:27.354Z,3.95
2019-01-31T00:23:38.510Z,5.05
2019-01-31T00:26:35.420Z,5.80
2019-01-31T00:29:46.398Z,4.20
2019-01-31T00:32:44.708Z,3.30
2019-01-31T00:35:50.668Z,4.53
2019-01-31T00:39:12.088Z,4.08
2019-01-31T00:42:09.834Z,2.95
2019-01-31T00:45:34.491Z,4.30
2019-01-31T00:48:39.472Z,3.22
2019-01-31T00:51:57.772Z,3.58
2019-01-31T00:55:22.284Z,2.83
2019-01-31T00:58:21.212Z,2.60
2019-01-31T01:01:12.166Z,2.70
2019-01-31T01:04:16.973Z,2.95
2019-01-31T01:07:25.316Z,4.95
2019-01-31T01:10:37.077Z,3.17
2019-01-31T01:13:41.642Z,4.72
2019-01-31T01:16:33.263Z,4.47
2019-01-31T01:19:54.294Z,2.52
2019-01-31T01:22:49.113Z,5.53
2019-01-31T01:26:04.629Z,3.10
2019-01-31T01:29:09.385Z,3.60
2019-01-31T01:32:01.115Z,3.75
2019-01-31T01:35:03.524Z,4.15
2019-01-31T01:38:14.365Z,3.15
2019-01-31T01:41:06.595Z,6.60
2019-01-31T01:43:57.009Z,3.15
2019-01-31T01:46:39.234Z,4.10
2019-01-31T01:49:23.941Z,3.10
2019-01-31T01:52:25.003Z,2.95
2019-01-31T01:55:29.663Z,3.50
2019-01-31T01:58:34.498Z,4.45
2019-01-31T02:01:25.751Z,4.25
2019-01-31T02:04:17.219Z,4.10
2019-01-31T02:07:07.471Z,3.92
2019-01-31T02:10:04.955Z,7.40
2019-01-31T02:12:59.931Z,3.12
2019-01-31T02:16:03.353Z,5.10
2019-01-31T02:18:39.545Z,4.80
2019-01-31T02:22:03.821Z,5.72
2019-01-31T02:25:10.029Z,7.20
2019-01-31T02:28:16.597Z,5.35
2019-01-31T02:31:06.641Z,5.72
2019-01-31T02:34:07.560Z,4.40
2019-01-31T02:37:00.358Z,6.75
2019-01-31T02:40:08.181Z,6.95
2019-01-31T02:42:50.602Z,6.30
2019-01-31T02:46:08.559Z,4.60
2019-01-31T02:49:05.726Z,4.90
2019-01-31T02:52:13.225Z,5.53
2019-01-31T02:54:49.192Z,7.25
2019-01-31T02:57:50.123Z,7.00
2019-01-31T03:00:27.326Z,5.40
2019-01-31T03:03:20.084Z,5.83
2019-01-31T03:05:58.067Z,6.72
2019-01-31T03:09:00.024Z,5.60
2019-01-31T03:12:03.945Z,7.58
2019-01-31T03:14:44.376Z,5.15
2019-01-31T03:17:49.248Z,8.55
2019-01-31T03:20:38.904Z,5.35
2019-01-31T03:23:27.998Z,7.47
2019-01-31T03:26:24.102Z,6.62
2019-01-31T03:29:26.275Z,6.45
2019-01-31T03:32:28.198Z,4.58
2019-01-31T03:35:18.869Z,5.00
2019-01-31T03:38:29.367Z,8.75
2019-01-31T03:41:34.898Z,6.47
2019-01-31T03:44:25.632Z,5.05
2019-01-31T03:47:30.287Z,5.70
2019-01-31T03:50:31.229Z,4.72
2019-01-31T03:53:43.566Z,3.77
2019-01-31T03:56:47.491Z,4.90
2019-01-31T03:59:22.283Z,4.47
2019-01-31T04:02:26.164Z,5.45
2019-01-31T04:05:34.574Z,9.95
2019-01-31T04:08:01.879Z,5.05
2019-01-31T04:10:29.077Z,4.92
2019-01-31T04:12:56.405Z,5.65
2019-01-31T04:15:23.833Z,5.37
2019-01-31T04:17:51.155Z,6.85
2019-01-31T04:20:18.470Z,4.28
2019-01-31T04:22:45.929Z,5.10
2019-01-31T04:25:13.329Z,6.35
2019-01-31T04:27:40.683Z,6.28
2019-01-31T04:30:10.859Z,5.10
2019-01-31T04:32:38.275Z,4.53
2019-01-31T04:35:05.796Z,5.62
2019-01-31T04:37:33.116Z,4.97
2019-01-31T04:40:00.468Z,3.75
2019-01-31T04:42:27.919Z,3.87
2019-01-31T04:44:55.237Z,4.83
2019-01-31T04:47:22.601Z,4.47
2019-01-31T04:49:50.120Z,4.90
2019-01-31T04:52:17.509Z,6.75
2019-01-31T04:54:44.924Z,5.05
2019-01-31T04:57:12.304Z,4.42
2019-01-31T04:59:39.722Z,5.05
2019-01-31T05:02:07.101Z,5.92
2019-01-31T05:04:34.530Z,6.25
2019-01-31T05:07:01.856Z,6.60
2019-01-31T05:09:29.266Z,7.53
2019-01-31T05:11:56.994Z,6.95
2019-01-31T05:14:24.456Z,5.08
2019-01-31T05:16:51.779Z,8.20
2019-01-31T05:19:19.103Z,5.40
2019-01-31T05:21:46.442Z,5.90
2019-01-31T05:24:13.871Z,6.22
2019-01-31T05:26:41.146Z,5.47
2019-01-31T05:29:08.484Z,7.40
2019-01-31T05:31:35.907Z,5.72
2019-01-31T05:34:03.343Z,6.50
2019-01-31T05:36:30.647Z,6.70
2019-01-31T05:38:57.989Z,4.80
2019-01-31T05:41:25.402Z,7.45
2019-01-31T05:43:52.825Z,10.38
2019-01-31T05:46:20.171Z,10.35
2019-01-31T05:48:47.611Z,9.05
2019-01-31T05:51:15.015Z,6.95
2019-01-31T05:53:42.771Z,10.03
2019-01-31T05:56:10.573Z,10.20
2019-01-31T05:58:37.848Z,5.47
2019-01-31T06:01:05.182Z,6.92
2019-01-31T06:03:32.477Z,9.13
2019-01-31T06:05:59.916Z,5.92
2019-01-31T06:08:27.237Z,7.25
2019-01-31T06:10:54.553Z,5.30
2019-01-31T06:13:22.289Z,6.45
2019-01-31T06:15:49.622Z,5.90
2019-01-31T06:18:17.430Z,7.53
2019-01-31T06:20:44.757Z,8.78
2019-01-31T06:23:12.057Z,10.28
2019-01-31T06:25:39.391Z,12.37
2019-01-31T06:28:06.670Z,10.38
2019-01-31T06:30:33.971Z,10.55
2019-01-31T06:33:01.288Z,9.90
2019-01-31T06:35:28.648Z,6.40
2019-01-31T06:37:56.445Z,10.28
2019-01-31T06:40:23.744Z,11.10
2019-01-31T06:42:51.125Z,8.80
2019-01-31T06:45:19.168Z,11.43
2019-01-31T06:47:46.677Z,13.00
2019-01-31T06:50:14.092Z,10.95
2019-01-31T06:52:41.516Z,11.63
2019-01-31T06:55:10.044Z,10.40
2019-01-31T06:57:37.412Z,11.70
2019-01-31T07:00:08.817Z,8.73
2019-01-31T07:02:36.335Z,9.20
2019-01-31T07:05:04.624Z,10.78
2019-01-31T07:07:32.198Z,16.87
2019-01-31T07:09:59.870Z,15.28
2019-01-31T07:12:27.311Z,12.78
2019-01-31T07:14:54.972Z,8.95
2019-01-31T07:17:22.341Z,5.80
2019-01-31T07:19:49.693Z,8.30
2019-01-31T07:22:17.471Z,8.38
2019-01-31T07:24:44.790Z,7.97
2019-01-31T07:27:12.087Z,11.78
2019-01-31T07:29:39.434Z,10.20
2019-01-31T07:32:07.231Z,11.83
2019-01-31T07:34:34.637Z,9.40
2019-01-31T07:37:01.882Z,10.70
2019-01-31T07:39:29.160Z,10.82
2019-01-31T07:41:56.465Z,10.20
2019-01-31T07:44:23.797Z,10.70
2019-01-31T07:46:51.200Z,10.13
2019-01-31T07:49:18.600Z,10.65
2019-01-31T07:51:46.040Z,12.98
2019-01-31T07:54:13.367Z,9.45
2019-01-31T07:56:40.731Z,15.53
2019-01-31T07:59:08.146Z,13.50
2019-01-31T08:01:35.521Z,11.75
2019-01-31T08:04:03.546Z,12.40
2019-01-31T08:06:31.055Z,18.27
2019-01-31T08:08:58.462Z,22.00
2019-01-31T08:11:26.144Z,11.15
2019-01-31T08:13:53.687Z,9.55
2019-01-31T08:16:21.186Z,7.12
2019-01-31T08:18:48.676Z,10.72
2019-01-31T08:21:16.155Z,10.13
2019-01-31T08:23:43.566Z,10.63
2019-01-31T08:26:11.093Z,7.55
2019-01-31T08:28:38.592Z,11.57
2019-01-31T08:31:06.432Z,7.85
2019-01-31T08:33:33.957Z,11.83
2019-01-31T08:36:01.513Z,9.43
2019-01-31T08:38:29.320Z,7.35
2019-01-31T08:40:56.858Z,9.83
2019-01-31T08:43:24.335Z,13.43
2019-01-31T08:45:51.903Z,8.65
2019-01-31T08:48:19.634Z,9.78
2019-01-31T08:50:47.053Z,7.00
2019-01-31T08:53:14.470Z,12.53
2019-01-31T08:55:42.317Z,7.45
2019-01-31T08:58:09.752Z,8.05
2019-01-31T09:00:37.372Z,8.45
2019-01-31T09:03:04.839Z,5.92
2019-01-31T09:05:32.452Z,5.47
2019-01-31T09:07:59.827Z,7.08
2019-01-31T09:10:32.478Z,7.03
2019-01-31T09:13:01.770Z,6.60
2019-01-31T09:15:29.178Z,9.33
2019-01-31T09:17:56.524Z,6.08
2019-01-31T09:20:31.096Z,10.35
2019-01-31T09:23:39.892Z,6.70
2019-01-31T09:26:47.278Z,10.45
2019-01-31T09:29:26.358Z,6.50
2019-01-31T09:32:38.643Z,6.42
2019-01-31T09:35:19.621Z,6.30
2019-01-31T09:38:38.124Z,8.10
2019-01-31T09:41:53.563Z,5.85
2019-01-31T09:44:53.915Z,4.40
2019-01-31T09:48:18.483Z,5.92
2019-01-31T09:51:27.628Z,5.75
2019-01-31T09:54:11.607Z,4.87
2019-01-31T09:57:05.768Z,7.83
2019-01-31T10:00:28.702Z,8.60
2019-01-31T10:03:22.503Z,7.37
2019-01-31T10:06:32.431Z,20.23
2019-01-31T10:09:30.844Z,17.70
2019-01-31T10:12:44.763Z,16.42
2019-01-31T10:15:46.567Z,6.85
2019-01-31T10:18:48.538Z,4.35
2019-01-31T10:22:21.920Z,4.70
2019-01-31T10:25:24.799Z,7.28
2019-01-31T10:28:28.374Z,4.75
2019-01-31T10:31:52.193Z,4.75
2019-01-31T10:34:46.313Z,4.90
2019-01-31T10:37:58.637Z,4.17
2019-01-31T10:41:16.599Z,3.55
2019-01-31T10:44:08.849Z,5.60
2019-01-31T10:46:58.840Z,5.33
2019-01-31T10:49:54.183Z,6.35
2019-01-31T10:53:01.126Z,4.58
2019-01-31T10:55:58.113Z,5.42
2019-01-31T10:59:19.655Z,5.60
2019-01-31T11:02:32.000Z,6.90
2019-01-31T11:05:43.115Z,9.00
2019-01-31T11:09:04.537Z,9.05
2019-01-31T11:12:18.396Z,13.18
2019-01-31T11:15:42.922Z,12.68
2019-01-31T11:18:50.680Z,14.28
2019-01-31T11:21:45.866Z,30.77
2019-01-31T11:24:54.098Z,10.18
2019-01-31T11:28:30.521Z,5.58
2019-01-31T11:31:26.638Z,7.12
2019-01-31T11:34:09.810Z,3.90
2019-01-31T11:37:28.676Z,9.10
2019-01-31T11:40:36.953Z,5.12
2019-01-31T11:43:39.387Z,4.70
2019-01-31T11:46:25.991Z,4.47
2019-01-31T11:48:59.748Z,5.80
2019-01-31T11:52:11.073Z,7.67
2019-01-31T11:55:35.261Z,6.83
2019-01-31T11:58:38.199Z,4.20
2019-01-31T12:01:08.668Z,3.30
2019-01-31T12:03:37.058Z,6.30
2019-01-31T12:06:04.755Z,14.07
2019-01-31T12:08:32.571Z,8.63
2019-01-31T12:11:00.083Z,4.40
2019-01-31T12:13:27.704Z,7.03
2019-01-31T12:15:55.104Z,5.15
2019-01-31T12:18:22.712Z,17.15
2019-01-31T12:20:50.032Z,5.67
2019-01-31T12:23:17.373Z,4.12
2019-01-31T12:25:45.021Z,7.92
2019-01-31T12:28:12.486Z,8.05
2019-01-31T12:30:39.847Z,3.10
2019-01-31T12:33:07.281Z,3.55
2019-01-31T12:35:34.668Z,8.98
2019-01-31T12:38:02.021Z,3.77
2019-01-31T12:40:29.479Z,4.05
2019-01-31T12:42:56.925Z,3.52
2019-01-31T12:45:24.249Z,4.95
2019-01-31T12:47:51.648Z,3.77
2019-01-31T12:50:21.976Z,3.72
2019-01-31T12:52:49.507Z,4.25
2019-01-31T12:55:16.948Z,3.22
2019-01-31T12:57:44.366Z,5.65
2019-01-31T13:00:16.191Z,3.25
2019-01-31T13:02:43.771Z,4.90
2019-01-31T13:05:12.686Z,3.85
2019-01-31T13:07:40.635Z,2.87
2019-01-31T13:10:08.849Z,4.95
2019-01-31T13:12:36.330Z,2.60
2019-01-31T13:15:04.658Z,2.75
2019-01-31T13:17:31.978Z,3.40
2019-01-31T13:19:59.324Z,3.20
2019-01-31T13:22:26.751Z,6.58
2019-01-31T13:24:54.214Z,4.97
2019-01-31T13:27:21.627Z,6.15
2019-01-31T13:29:49.048Z,3.20
2019-01-31T13:32:16.458Z,2.72
2019-01-31T13:34:43.857Z,4.17
2019-01-31T13:37:11.493Z,2.10
2019-01-31T13:39:41.671Z,3.50
2019-01-31T13:42:09.090Z,3.47
2019-01-31T13:44:36.453Z,3.17
2019-01-31T13:47:04.353Z,3.77
2019-01-31T13:49:31.873Z,3.40
2019-01-31T13:51:59.260Z,3.00
2019-01-31T13:54:26.638Z,3.00
2019-01-31T13:56:54.025Z,3.83
2019-01-31T13:59:21.382Z,2.75
2019-01-31T14:01:49.095Z,3.98
2019-01-31T14:04:16.545Z,3.23
2019-01-31T14:06:43.911Z,3.77
2019-01-31T14:09:11.683Z,2.90
2019-01-31T14:11:39.024Z,4.50
2019-01-31T14:14:09.279Z,5.00
2019-01-31T14:16:46.758Z,3.10
2019-01-31T14:19:04.911Z,2.95
2019-01-31T14:21:32.216Z,2.83
2019-01-31T14:23:59.669Z,3.27
2019-01-31T14:26:27.082Z,3.42
2019-01-31T14:28:54.395Z,2.58
2019-01-31T14:31:21.828Z,3.60
2019-01-31T14:33:49.241Z,3.20
2019-01-31T14:36:16.596Z,3.20
2019-01-31T14:38:44.042Z,4.85
2019-01-31T14:41:11.475Z,2.60
2019-01-31T14:43:38.828Z,3.05
2019-01-31T14:46:06.357Z,3.45
2019-01-31T14:48:33.716Z,2.85
2019-01-31T14:51:01.126Z,3.50
2019-01-31T14:53:28.476Z,3.05
2019-01-31T14:55:56.218Z,3.20
2019-01-31T14:58:23.801Z,4.80
2019-01-31T15:00:51.228Z,2.90
2019-01-31T15:03:18.638Z,2.47
2019-01-31T15:05:46.041Z,2.40
2019-01-31T15:08:13.495Z,3.27
2019-01-31T15:10:40.882Z,2.47
2019-01-31T15:13:08.244Z,3.25
2019-01-31T15:15:35.729Z,4.30
2019-01-31T15:18:04.370Z,2.80
2019-01-31T15:20:37.903Z,3.12
2019-01-31T15:23:03.616Z,3.55
2019-01-31T15:25:31.069Z,3.00
2019-01-31T15:27:58.479Z,4.50
2019-01-31T15:30:29.044Z,3.70
2019-01-31T15:32:58.503Z,3.50
2019-01-31T15:35:26.121Z,3.75
2019-01-31T15:37:53.578Z,8.28
2019-01-31T15:40:24.186Z,29.70
2019-01-31T15:42:51.601Z,44.03
2019-01-31T15:45:18.953Z,47.40
2019-01-31T15:47:46.310Z,17.82
2019-01-31T15:50:14.493Z,22.73
2019-01-31T15:52:42.961Z,6.90
2019-01-31T15:55:12.472Z,6.65
2019-01-31T15:57:39.816Z,5.30
2019-01-31T16:00:16.871Z,5.12
2019-01-31T16:02:44.408Z,5.75
2019-01-31T16:05:18.842Z,3.75
2019-01-31T16:07:41.154Z,4.05
2019-01-31T16:10:08.633Z,4.35
2019-01-31T16:12:36.179Z,2.90
2019-01-31T16:15:04.998Z,3.30
2019-01-31T16:17:32.387Z,3.20
2019-01-31T16:19:59.752Z,4.03
2019-01-31T16:22:27.216Z,2.70
2019-01-31T16:24:54.624Z,3.17
2019-01-31T16:27:22.022Z,3.70
2019-01-31T16:29:49.351Z,3.62
2019-01-31T16:32:16.867Z,3.27
2019-01-31T16:34:44.700Z,6.70
2019-01-31T16:37:12.336Z,3.55
2019-01-31T16:39:39.817Z,3.20
2019-01-31T16:42:07.509Z,3.20
2019-01-31T16:44:34.866Z,3.15
2019-01-31T16:47:02.333Z,4.10
2019-01-31T16:49:29.823Z,3.45
2019-01-31T16:51:57.341Z,4.45
2019-01-31T16:54:24.772Z,5.25
2019-01-31T16:56:52.259Z,3.20
2019-01-31T16:59:19.709Z,3.17
2019-01-31T17:01:47.167Z,5.00
2019-01-31T17:04:14.506Z,3.17
2019-01-31T17:06:41.986Z,3.17
2019-01-31T17:09:09.471Z,3.55
2019-01-31T17:11:37.851Z,4.72
2019-01-31T17:14:05.496Z,3.33
2019-01-31T17:16:33.055Z,3.85
2019-01-31T17:19:00.509Z,4.70
2019-01-31T17:21:28.240Z,3.87
2019-01-31T17:23:55.718Z,3.40
2019-01-31T17:26:23.970Z,7.62
2019-01-31T17:28:51.434Z,3.12
2019-01-31T17:31:19.259Z,4.55
2019-01-31T17:33:46.683Z,4.35
2019-01-31T17:36:14.192Z,5.35
2019-01-31T17:38:41.647Z,5.22
2019-01-31T17:41:09.388Z,6.67
2019-01-31T17:43:36.903Z,6.40
2019-01-31T17:46:05.487Z,6.80
2019-01-31T17:48:35.405Z,5.15
2019-01-31T17:51:02.663Z,3.98
2019-01-31T17:53:30.498Z,6.35
2019-01-31T17:55:57.949Z,7.85
2019-01-31T17:58:25.436Z,5.72
2019-01-31T18:00:57.565Z,4.42
2019-01-31T18:03:25.441Z,5.45
2019-01-31T18:05:53.280Z,6.03
2019-01-31T18:08:20.810Z,8.20
2019-01-31T18:10:48.348Z,8.40
2019-01-31T18:13:15.843Z,7.97
2019-01-31T18:15:43.418Z,12.82
2019-01-31T18:18:10.831Z,33.28
2019-01-31T18:20:38.347Z,11.03
2019-01-31T18:23:05.847Z,5.87
2019-01-31T18:25:33.305Z,5.15
2019-01-31T18:28:00.684Z,4.67
2019-01-31T18:30:28.753Z,7.22
2019-01-31T18:32:57.056Z,14.50
2019-01-31T18:35:24.524Z,12.25
2019-01-31T18:37:52.085Z,7.97
2019-01-31T18:40:22.013Z,6.60
2019-01-31T18:42:49.537Z,7.33
2019-01-31T18:45:22.129Z,5.67
2019-01-31T18:47:49.754Z,11.60
2019-01-31T18:50:19.782Z,7.95
2019-01-31T18:52:47.168Z,9.65
2019-01-31T18:55:14.659Z,13.32
2019-01-31T18:57:42.173Z,11.57
2019-01-31T19:00:23.227Z,10.43
2019-01-31T19:02:50.913Z,9.23
2019-01-31T19:05:18.434Z,9.48
2019-01-31T19:07:46.347Z,11.28
2019-01-31T19:10:13.999Z,10.75
2019-01-31T19:12:41.492Z,12.60
2019-01-31T19:15:10.450Z,12.33
2019-01-31T19:17:37.965Z,11.20
2019-01-31T19:20:12.065Z,12.55
2019-01-31T19:22:39.569Z,9.25
2019-01-31T19:25:07.293Z,9.10
2019-01-31T19:27:34.793Z,9.08
2019-01-31T19:30:03.395Z,9.03
2019-01-31T19:32:30.969Z,12.30
2019-01-31T19:34:58.490Z,10.60
2019-01-31T19:37:26.790Z,9.18
2019-01-31T19:39:54.285Z,7.53
2019-01-31T19:42:22.817Z,9.55
2019-01-31T19:44:50.459Z,10.35
2019-01-31T19:47:18.008Z,9.60
2019-01-31T19:49:45.629Z,7.72
2019-01-31T19:52:13.508Z,8.78
2019-01-31T19:54:41.085Z,9.53
2019-01-31T19:57:08.583Z,11.50
2019-01-31T19:59:37.203Z,8.35
2019-01-31T20:02:05.341Z,7.83
2019-01-31T20:04:34.873Z,6.50
2019-01-31T20:07:02.850Z,6.87
2019-01-31T20:09:30.762Z,7.37
2019-01-31T20:11:58.412Z,6.17
2019-01-31T20:14:26.384Z,5.42
2019-01-31T20:16:54.302Z,7.33
2019-01-31T20:19:21.912Z,6.33
2019-01-31T20:21:52.036Z,5.80
2019-01-31T20:24:19.962Z,5.33
2019-01-31T20:26:47.523Z,6.50
2019-01-31T20:29:15.130Z,5.25
2019-01-31T20:31:42.945Z,6.45
2019-01-31T20:34:10.989Z,5.87
2019-01-31T20:36:38.574Z,5.60
2019-01-31T20:39:08.708Z,6.62
2019-01-31T20:41:36.347Z,5.75
2019-01-31T20:44:03.970Z,7.17
2019-01-31T20:46:39.661Z,6.87
2019-01-31T20:49:00.944Z,7.00
2019-01-31T20:51:28.597Z,7.25
2019-01-31T20:53:56.094Z,6.55
2019-01-31T20:56:23.716Z,9.90
2019-01-31T20:58:51.247Z,10.35
2019-01-31T21:01:18.753Z,30.92
2019-01-31T21:03:46.162Z,25.95
2019-01-31T21:06:14.093Z,29.65
2019-01-31T21:08:41.651Z,24.67
2019-01-31T21:11:09.220Z,23.73
2019-01-31T21:13:36.780Z,32.30
2019-01-31T21:16:04.344Z,48.30
2019-01-31T21:18:32.179Z,31.60
2019-01-31T21:20:59.673Z,19.77
2019-01-31T21:23:27.196Z,13.18
2019-01-31T21:25:54.754Z,13.72
2019-01-31T21:28:22.252Z,21.80
2019-01-31T21:30:49.794Z,20.90
2019-01-31T21:33:17.558Z,10.55
2019-01-31T21:35:45.026Z,9.65
2019-01-31T21:38:12.590Z,11.40
2019-01-31T21:40:40.562Z,11.83
2019-01-31T21:43:08.348Z,10.93
2019-01-31T21:45:36.463Z,20.02
2019-01-31T21:48:05.710Z,27.62
2019-01-31T21:50:33.191Z,21.45
2019-01-31T21:53:00.548Z,18.30
2019-01-31T21:55:28.127Z,15.20
2019-01-31T21:57:55.900Z,10.95
2019-01-31T22:00:26.283Z,11.88
2019-01-31T22:02:53.964Z,18.07
2019-01-31T22:05:21.448Z,37.30
2019-01-31T22:07:48.971Z,23.07
2019-01-31T22:10:18.477Z,14.63
2019-01-31T22:12:45.953Z,21.57
2019-01-31T22:15:19.463Z,28.42
2019-01-31T22:17:47.000Z,63.45
2019-01-31T22:20:14.665Z,22.70
2019-01-31T22:22:42.177Z,69.25
2019-01-31T22:25:11.241Z,65.35
2019-01-31T22:27:39.149Z,22.05
2019-01-31T22:30:10.864Z,39.27
2019-01-31T22:32:38.325Z,65.83
2019-01-31T22:35:07.372Z,69.42
2019-01-31T22:37:34.693Z,51.45
2019-01-31T22:40:02.300Z,26.85
2019-01-31T22:42:29.797Z,17.77
2019-01-31T22:44:57.186Z,21.25
2019-01-31T22:47:26.352Z,43.58
2019-01-31T22:49:53.905Z,32.17
2019-01-31T22:52:21.401Z,21.07
2019-01-31T22:54:48.757Z,9.98
2019-01-31T22:57:16.146Z,7.30
2019-01-31T22:59:43.578Z,6.50
2019-01-31T23:02:13.287Z,29.10
2019-01-31T23:04:40.631Z,11.15
2019-01-31T23:07:08.133Z,7.35
2019-01-31T23:09:35.570Z,8.50
2019-01-31T23:12:03.133Z,10.03
2019-01-31T23:14:30.585Z,14.28
2019-01-31T23:16:58.229Z,8.73
2019-01-31T23:19:25.639Z,6.58
2019-01-31T23:21:53.002Z,8.08
2019-01-31T23:24:20.305Z,6.53
2019-01-31T23:26:48.076Z,11.25
2019-01-31T23:29:15.413Z,7.33
2019-01-31T23:31:42.862Z,9.25
2019-01-31T23:34:10.183Z,10.68
2019-01-31T23:36:37.622Z,8.63
2019-01-31T23:39:08.852Z,8.15
2019-01-31T23:41:36.273Z,9.43
2019-01-31T23:44:04.037Z,8.63
2019-01-31T23:46:31.471Z,11.10
2019-01-31T23:48:59.175Z,6.83
2019-01-31T23:51:26.500Z,11.28
2019-01-31T23:53:53.930Z,13.03
2019-01-31T23:56:21.389Z,12.88
2019-01-31T23:58:48.812Z,9.38
